createdAt,value
2023-10-20T00:00:39.609Z,15
2023-10-20T00:15:42.419Z,10.7
2023-10-20T00:30:41.629Z,10.5
2023-10-20T00:45:43.689Z,12.3
2023-10-20T01:00:43.228Z,12.7
2023-10-20T01:01:26.922Z,12.6
2023-10-20T01:15:44.065Z,11.2
2023-10-20T01:30:45.336Z,12.8
2023-10-20T01:45:46.827Z,28.3
2023-10-20T02:00:46.469Z,11.7
2023-10-20T02:15:47.441Z,13.2
2023-10-20T02:30:54.023Z,11.9
2023-10-20T02:45:49.297Z,10.8
2023-10-20T03:00:50.356Z,10.7
2023-10-20T03:15:50.615Z,12.3
2023-10-20T03:30:52.893Z,10.6
2023-10-20T03:45:53.158Z,12
2023-10-20T04:00:52.991Z,11
2023-10-20T04:15:54.086Z,10.5
2023-10-20T04:30:59.484Z,10.3
2023-10-20T04:45:55.176Z,10.4
2023-10-20T05:00:56.857Z,14.1
2023-10-20T05:15:58.280Z,9.9
2023-10-20T05:30:57.927Z,6
2023-10-20T05:45:59.421Z,5.1
2023-10-20T06:01:07.322Z,3.8
2023-10-20T06:04:38.351Z,4.5
2023-10-20T06:19:39.192Z,12.7
2023-10-20T06:34:42.497Z,12.8
2023-10-20T06:49:42.047Z,12.5
2023-10-20T07:04:43.963Z,5.2
2023-10-20T07:19:44.733Z,2.8
2023-10-20T07:34:43.798Z,2.8
2023-10-20T07:49:46.059Z,4.9
2023-10-20T08:04:46.834Z,4.1
2023-10-20T08:19:46.596Z,3.6
2023-10-20T08:34:47.504Z,4.7
2023-10-20T08:49:48.746Z,2.6
2023-10-20T09:04:49.462Z,6.9
2023-10-20T09:19:49.450Z,3.6
2023-10-20T09:34:52.475Z,4.8
2023-10-20T09:49:51.357Z,1.4
2023-10-20T10:04:52.097Z,1.6
2023-10-20T10:19:52.516Z,3.1
2023-10-20T10:34:58.371Z,1.5
2023-10-20T10:49:53.394Z,3.5
2023-10-20T11:04:54.124Z,1.5
2023-10-20T11:19:55.304Z,1.6
2023-10-20T11:34:56.274Z,1.4
2023-10-20T11:49:57.714Z,2.6
2023-10-20T12:04:56.985Z,2.5
2023-10-20T12:19:58.109Z,1
2023-10-20T12:34:59.800Z,1.2
2023-10-20T12:50:00.268Z,0.4
2023-10-20T13:05:01.510Z,0.6
2023-10-20T13:20:04.546Z,0
2023-10-20T13:35:03.128Z,0.2
2023-10-20T13:50:06.182Z,0.2
2023-10-20T14:05:04.279Z,1.4
2023-10-20T14:20:05.191Z,1.2
2023-10-20T14:35:12.835Z,2.1
2023-10-20T14:50:06.320Z,0.3
2023-10-20T15:05:06.790Z,2
2023-10-20T15:20:09.161Z,0.4
2023-10-20T15:35:10.716Z,0.9
2023-10-20T15:50:09.302Z,0.9
2023-10-20T16:05:10.950Z,0.6
2023-10-20T16:20:11.933Z,1.6
2023-10-20T16:35:15.018Z,2.1
2023-10-20T16:50:12.605Z,2.1
2023-10-20T17:05:13.626Z,11
2023-10-20T17:20:14.580Z,1.2
2023-10-20T17:35:16.454Z,0.6
2023-10-20T17:50:16.618Z,7.1
2023-10-20T18:05:16.740Z,1.1
2023-10-20T18:20:19.758Z,4.8
2023-10-20T18:35:18.574Z,2.5
2023-10-20T18:50:19.875Z,3
2023-10-20T19:05:20.293Z,3.7
2023-10-20T19:20:21.926Z,2
2023-10-20T19:35:21.976Z,1.9
2023-10-20T19:50:22.904Z,2.1
2023-10-20T20:05:23.548Z,1.3
2023-10-20T20:20:27.141Z,1.1
2023-10-20T20:35:25.327Z,2.2
2023-10-20T20:50:33.804Z,1.1
2023-10-20T21:05:28.221Z,0.7
2023-10-20T21:20:28.908Z,1.1
2023-10-20T21:35:29.853Z,1.1
2023-10-20T21:50:30.059Z,4.2
2023-10-20T22:00:37.949Z,1.2
2023-10-20T22:15:42.662Z,2.5
2023-10-20T22:30:36.862Z,11.1
2023-10-20T22:45:37.057Z,7.6
2023-10-20T23:00:38.287Z,2
2023-10-20T23:15:46.440Z,2.8
2023-10-20T23:30:49.260Z,2.8
2023-10-20T23:45:40.313Z,2
